• Join FlightAware (Why Join?)
  • Login
  • US Flag 
02:40AM EDT


 

Airport Tracker/Info


-or-


 

Live Flight TrackerFlight Track Log ✈ N662US ✈ 14-Jul-2013 ✈ VTBS / BKK - RJAA / NRT

Flight Track Log - Related Links

Times and Time Zones

All times are in EDT time to prevent confusion due to time zone crossing. See the N662US flight status page for this flight to view local times or setup timezone preferences in your user account.

Time Position Orientation Groundspeed Altitude Reporting Facility
EDT Latitude Longitude Course Direction KTS MPH feet Rate Location/Type
06:58PM 13.7593 100.8465 51° Northeast  Level Estimated
06:59PM 13.8374 100.9457 51° Northeast  Level Estimated
07:00PM 13.9155 101.0450 51° Northeast  Level Estimated
07:00PM 13.6550 100.7310 51° Northeast 165 190 1,200  Level FlightAware
07:01PM 13.9935 101.1444 51° Northeast  Level Estimated
07:01PM 13.6410 100.7270 196° South 172 198 1,600  Level FlightAware
07:01PM 13.6280 100.7240 193° South 171 197 2,100 1,680 Climbing FlightAware
07:01PM 13.6080 100.7180 196° South 177 204 2,800 1,500 Climbing FlightAware
07:02PM 13.5660 100.7310 163° South 226 260 3,800 1,200 Climbing FlightAware
07:02PM 13.5550 100.7460 127° Southeast 246 283 4,000 960 Climbing FlightAware
07:03PM 13.5490 100.7680 106° East 263 303 4,400 1,320 Climbing FlightAware
07:03PM 13.5550 100.7980 78° East 276 318 5,000 1,860 Climbing FlightAware
07:04PM 13.5760 100.8390 62° Northeast 295 339 6,200 2,400 Climbing FlightAware
07:04PM 13.5950 100.8720 59° Northeast 299 344 7,500 2,760 Climbing FlightAware
07:04PM 13.6130 100.9030 59° Northeast 306 352 8,600 2,700 Climbing FlightAware
07:05PM 13.6460 100.9620 60° Northeast 309 356 10,700 2,100 Climbing FlightAware
07:06PM 13.6760 101.0150 60° Northeast 338 389 11,800 1,740 Climbing FlightAware
07:07PM 13.7050 101.0650 59° Northeast 361 415 13,000 2,160 Climbing FlightAware
07:07PM 13.7470 101.1390 60° Northeast 382 440 14,800 2,160 Climbing FlightAware
07:08PM 13.7760 101.1860 58° Northeast 395 455 15,900 2,160 Climbing FlightAware
07:09PM 13.8120 101.2620 64° Northeast 410 472 17,500 2,040 Climbing FlightAware
07:09PM 13.8430 101.3430 68° East 432 497 18,900 2,100 Climbing FlightAware
07:10PM 13.8680 101.4110 69° East 434 499 20,300 2,160 Climbing FlightAware
07:11PM 13.9150 101.5340 68° East 454 522 22,200 1,920 Climbing FlightAware
07:12PM 13.9450 101.6130 69° East 462 532 23,400 1,860 Climbing FlightAware
07:12PM 13.9730 101.6870 69° East 465 535 24,600 1,800 Climbing FlightAware
07:13PM 14.0080 101.7810 69° East 475 547 25,800 1,560 Climbing FlightAware
07:14PM 14.0410 101.8690 69° East 481 554 26,900 1,500 Climbing FlightAware
07:14PM 14.0740 101.9550 68° East 490 564 27,900 1,560 Climbing FlightAware
07:15PM 14.1110 102.0540 69° East 494 568 29,100 1,380 Climbing FlightAware
07:16PM 14.1430 102.1430 70° East 501 577 29,900 1,380 Climbing FlightAware
07:16PM 14.1810 102.2430 69° East 501 577 31,100 1,920 Climbing FlightAware
07:17PM 14.2080 102.3140 69° East 490 564 32,400 1,500 Climbing FlightAware
07:18PM 14.2450 102.4110 69° East 486 559 33,000 420 Climbing FlightAware
07:18PM 14.2780 102.4950 68° East 485 558 33,000  Level FlightAware
07:19PM 14.3140 102.5920 69° East 486 559 33,000  Level FlightAware
07:20PM 14.3460 102.6770 69° East 487 560 33,000  Level FlightAware
07:20PM 14.3830 102.7750 69° East 488 562 33,000  Level FlightAware
07:21PM 14.4150 102.8620 69° East 489 563 33,000  Level FlightAware
07:22PM 14.4450 102.9420 69° East 488 562 33,000  Level FlightAware
07:22PM 14.4780 103.0290 69° East 489 563 33,000  Level FlightAware
07:23PM 14.5130 103.1250 69° East 490 564 33,000  Level FlightAware
07:24PM 14.5430 103.2040 69° East 492 566 33,000  Level FlightAware
07:24PM 14.5750 103.2900 69° East 492 566 33,000  Level FlightAware
07:25PM 14.6080 103.3780 69° East 492 566 33,000  Level FlightAware
07:26PM 14.6430 103.4720 69° East 493 567 33,000  Level FlightAware
07:26PM 14.6770 103.5650 69° East 492 566 33,000  Level FlightAware
07:27PM 14.7120 103.6590 69° East 493 567 33,000  Level FlightAware
07:28PM 14.7480 103.7560 69° East 493 567 33,000  Level FlightAware
07:29PM 14.7770 103.8350 69° East 493 567 33,000  Level FlightAware
07:29PM 14.8100 103.9230 69° East 491 565 33,000  Level FlightAware
07:30PM 14.8420 104.0110 69° East 490 564 33,000  Level FlightAware
07:31PM 14.8730 104.0960 69° East 488 562 33,000  Level FlightAware
07:31PM 14.9030 104.1770 69° East 487 560 33,000  Level FlightAware
07:32PM 14.9390 104.2750 69° East 488 562 33,000  Level FlightAware
07:33PM 14.9700 104.3600 69° East 489 563 33,000  Level FlightAware
07:33PM 15.0060 104.4590 69° East 488 562 33,000  Level FlightAware
07:34PM 15.0380 104.5460 69° East 487 560 33,000  Level FlightAware
07:35PM 15.0730 104.6420 69° East 486 559 33,000  Level FlightAware
07:35PM 15.1060 104.7340 70° East 487 560 33,000  Level FlightAware
07:36PM 15.1420 104.8300 69° East 490 564 33,000  Level FlightAware
07:37PM 15.1750 104.9220 70° East 488 562 33,000  Level FlightAware
07:37PM 15.2070 105.0100 69° East 487 560 33,000  Level FlightAware
07:38PM 15.2330 105.0990 73° East 487 560 33,000  Level FlightAware
07:39PM 15.2580 105.2000 76° East 487 560 33,000  Level FlightAware
07:39PM 15.2780 105.2770 75° East 488 562 33,000  Level FlightAware
07:40PM 15.3020 105.3630 74° East 488 562 33,000  Level FlightAware
07:41PM 15.3210 105.4310 74° East 488 562 33,000  Level FlightAware
07:41PM 15.3400 105.5020 74° East 488 562 33,000  Level FlightAware
07:42PM 15.3660 105.5940 74° East 488 562 33,000  Level FlightAware
07:43PM 15.4040 105.7480 76° East 490 564 33,000  Level FlightAware
07:44PM 15.4250 105.8320 75° East 491 565 33,000  Level FlightAware
07:44PM 15.4430 105.9020 75° East 491 565 33,000  Level FlightAware
07:45PM 15.4760 106.0310 75° East 493 567 33,000  Level FlightAware
07:46PM 15.4960 106.1060 75° East 493 567 33,000  Level FlightAware
07:46PM 15.5290 106.2370 75° East 493 567 33,000  Level FlightAware
07:47PM 15.5480 106.3130 75° East 493 567 33,000  Level FlightAware
07:48PM 15.5720 106.4060 75° East 493 567 33,000  Level FlightAware
07:48PM 15.5980 106.5110 76° East 493 567 33,000  Level FlightAware
07:49PM 15.6180 106.5850 74° East 492 566 33,000  Level FlightAware
07:50PM 15.6480 106.7090 76° East 494 568 33,000  Level FlightAware
07:51PM 15.6740 106.8100 75° East 494 568 33,000  Level FlightAware
07:51PM 15.6920 106.8800 75° East 494 568 33,000  Level FlightAware
07:52PM 15.7230 106.9990 75° East 494 568 33,000  Level FlightAware
07:53PM 15.7410 107.0690 75° East 494 568 33,000  Level FlightAware
07:54PM 15.7650 107.1630 75° East 494 568 33,000  Level FlightAware
07:54PM 15.7830 107.2330 75° East 494 568 33,000  Level FlightAware
07:55PM 15.8070 107.3270 75° East 494 568 33,000  Level FlightAware
07:56PM 15.8250 107.3970 75° East 494 568 33,000  Level FlightAware
07:57PM 15.8490 107.4910 75° East 494 568 33,000  Level FlightAware
07:57PM 15.8670 107.5610 75° East 494 568 33,000  Level FlightAware
07:58PM 15.8910 107.6540 75° East 494 568 33,000  Level FlightAware
07:59PM 15.9100 107.7250 74° East 494 568 33,000  Level FlightAware
07:59PM 15.9280 107.7950 75° East 494 568 33,000  Level FlightAware
08:00PM 15.9520 107.8890 75° East 494 568 33,000 60 Level FlightAware
08:03PM 16.1587 108.1401 49° Northeast  Level Estimated
08:04PM 16.2386 108.2374 49° Northeast  Level Estimated
08:05PM 16.3185 108.3348 49° Northeast  Level Estimated
08:06PM 16.3983 108.4323 50° Northeast  Level Estimated
08:07PM 16.4781 108.5299 50° Northeast  Level Estimated
08:08PM 16.5578 108.6275 50° Northeast  Level Estimated
08:09PM 16.6375 108.7253 50° Northeast  Level Estimated
08:10PM 16.7172 108.8231 50° Northeast  Level Estimated
08:11PM 16.7968 108.9210 50° Northeast  Level Estimated
08:12PM 16.8763 109.0189 50° Northeast  Level Estimated
08:13PM 16.9558 109.1170 50° Northeast  Level Estimated
08:14PM 17.0353 109.2151 50° Northeast  Level Estimated
08:15PM 17.1147 109.3133 50° Northeast  Level Estimated
08:16PM 17.1941 109.4117 50° Northeast  Level Estimated
08:17PM 17.2734 109.5100 50° Northeast  Level Estimated
08:18PM 17.3527 109.6085 50° Northeast  Level Estimated
08:19PM 17.4319 109.7071 50° Northeast  Level Estimated
08:20PM 17.5111 109.8057 50° Northeast  Level Estimated
08:21PM 17.5902 109.9045 50° Northeast  Level Estimated
08:22PM 17.6693 110.0033 50° Northeast  Level Estimated
08:23PM 17.7483 110.1022 50° Northeast  Level Estimated
08:24PM 17.8273 110.2012 50° Northeast  Level Estimated
08:25PM 17.9062 110.3003 50° Northeast  Level Estimated
08:26PM 17.9851 110.3994 50° Northeast  Level Estimated
08:27PM 18.0639 110.4987 50° Northeast  Level Estimated
08:28PM 18.1427 110.5980 50° Northeast  Level Estimated
08:29PM 18.2215 110.6975 50° Northeast  Level Estimated
08:30PM 18.3001 110.7970 50° Northeast  Level Estimated
08:31PM 18.3788 110.8966 50° Northeast  Level Estimated
08:32PM 18.4573 110.9963 50° Northeast  Level Estimated
08:33PM 18.5359 111.0961 50° Northeast  Level Estimated
08:34PM 18.6143 111.1960 50° Northeast  Level Estimated
08:35PM 18.6928 111.2960 50° Northeast  Level Estimated
08:36PM 18.7711 111.3961 50° Northeast  Level Estimated
08:37PM 18.8494 111.4963 50° Northeast  Level Estimated
08:38PM 18.9277 111.5965 50° Northeast  Level Estimated
08:39PM 19.0059 111.6969 50° Northeast  Level Estimated
08:40PM 19.0840 111.7973 51° Northeast  Level Estimated
08:41PM 19.1621 111.8979 51° Northeast  Level Estimated
08:42PM 19.2402 111.9985 51° Northeast  Level Estimated
08:43PM 19.3181 112.0993 51° Northeast  Level Estimated
08:44PM 19.3961 112.2001 51° Northeast  Level Estimated
08:45PM 19.4739 112.3010 51° Northeast  Level Estimated
08:46PM 19.5518 112.4020 51° Northeast  Level Estimated
08:47PM 19.6295 112.5032 51° Northeast  Level Estimated
08:48PM 19.7072 112.6044 51° Northeast  Level Estimated
08:49PM 19.7849 112.7057 51° Northeast  Level Estimated
08:50PM 19.8625 112.8071 51° Northeast  Level Estimated
08:51PM 19.9400 112.9086 51° Northeast  Level Estimated
08:52PM 20.0175 113.0103 51° Northeast  Level Estimated
08:53PM 20.0949 113.1120 51° Northeast  Level Estimated
08:54PM 20.1723 113.2138 51° Northeast  Level Estimated
08:55PM 20.2495 113.3157 51° Northeast  Level Estimated
08:56PM 20.3268 113.4177 51° Northeast  Level Estimated
08:57PM 20.4040 113.5199 51° Northeast  Level Estimated
08:57PM 19.8870 114.7500 51° Northeast 466 536 37,000  Level FlightAware
08:58PM 20.4811 113.6221 51° Northeast  Level Estimated
08:58PM 19.9180 114.8170 64° Northeast 468 539 37,000  Level FlightAware
08:59PM 19.9690 114.9240 63° Northeast 468 539 37,000  Level FlightAware
08:59PM 20.0080 115.0080 64° Northeast 37,000  Level FlightAware
09:00PM 20.0500 115.0960 63° Northeast 472 543 37,000  Level FlightAware
09:00PM 20.0810 115.1600 63° Northeast 472 543 37,000  Level FlightAware
09:01PM 20.1110 115.2230 63° Northeast 472 543 37,000  Level FlightAware
09:02PM 20.1810 115.3700 63° Northeast 37,000  Level FlightAware
09:02PM 20.2040 115.4200 64° Northeast 472 543 37,000  Level FlightAware
09:03PM 20.2360 115.4860 63° Northeast 472 543 37,000  Level FlightAware
09:04PM 20.2770 115.5720 63° Northeast 472 543 37,000  Level FlightAware
09:05PM 20.3070 115.6350 63° Northeast 472 543 37,000  Level FlightAware
09:05PM 20.3480 115.7200 63° Northeast 472 543 37,000  Level FlightAware
09:06PM 20.3780 115.7840 63° Northeast 472 543 37,000  Level FlightAware
09:07PM 20.4080 115.8470 63° Northeast 472 543 37,000  Level FlightAware
09:07PM 20.4490 115.9320 63° Northeast 472 543 37,000  Level FlightAware
09:08PM 20.4790 115.9950 63° Northeast 472 543 37,000  Level FlightAware
09:09PM 20.5090 116.0590 63° Northeast 472 543 37,000  Level FlightAware
09:09PM 20.5500 116.1440 63° Northeast 472 543 37,000  Level FlightAware
09:10PM 20.5800 116.2070 63° Northeast 472 543 37,000  Level FlightAware
09:11PM 20.6300 116.3120 63° Northeast 472 543 37,000  Level FlightAware
09:11PM 20.6600 116.3750 63° Northeast 472 543 37,000  Level FlightAware
09:14PM 20.8211 116.5746 49° Northeast  Level Estimated
09:15PM 20.9009 116.6737 49° Northeast  Level Estimated
09:16PM 20.9806 116.7729 49° Northeast  Level Estimated
09:17PM 21.0603 116.8722 49° Northeast  Level Estimated
09:18PM 21.1399 116.9717 49° Northeast  Level Estimated
09:19PM 21.2195 117.0712 49° Northeast  Level Estimated
09:20PM 21.2990 117.1709 49° Northeast  Level Estimated
09:21PM 21.3785 117.2706 49° Northeast  Level Estimated
09:22PM 21.4579 117.3705 49° Northeast  Level Estimated
09:22PM 21.2920 117.9800 49° Northeast 480 552 37,000  Level FlightAware
09:23PM 21.3110 118.0560 75° East 482 555 37,000  Level FlightAware
09:24PM 21.3380 118.1620 75° East 484 557 37,000  Level FlightAware
09:25PM 21.3840 118.3400 74° East 485 558 37,000  Level FlightAware
09:26PM 21.4060 118.4280 75° East 484 557 37,000  Level FlightAware
09:26PM 21.4280 118.5270 77° East 483 556 37,000  Level FlightAware
09:27PM 21.4460 118.6130 77° East 483 556 37,000  Level FlightAware
09:28PM 21.4640 118.6950 77° East 484 557 37,000  Level FlightAware
09:28PM 21.4880 118.8100 77° East 484 557 37,000  Level FlightAware
09:29PM 21.5120 118.9170 76° East 483 556 37,000  Level FlightAware
09:30PM 21.5320 119.0080 77° East 480 552 37,000  Level FlightAware
09:30PM 21.5520 119.1060 78° East 479 551 37,000  Level FlightAware
09:31PM 21.5570 119.2010 87° East 480 552 37,000  Level FlightAware
09:32PM 21.5610 119.3170 88° East 480 552 37,000  Level FlightAware
09:33PM 21.5660 119.4080 87° East 481 554 37,000  Level FlightAware
09:33PM 21.5780 119.5150 83° East 485 558 37,000  Level FlightAware
09:34PM 21.5940 119.5950 78° East 486 559 37,000  Level FlightAware
09:35PM 21.6110 119.6930 79° East 487 560 37,000  Level FlightAware
09:35PM 21.6300 119.7900 78° East 489 563 37,000  Level FlightAware
09:36PM 21.6700 119.8750 63° Northeast 493 567 37,000  Level FlightAware
09:36PM 21.6990 119.9550 69° East 493 567 37,000  Level FlightAware
09:37PM 21.7260 120.0540 74° East 494 568 37,000  Level FlightAware
09:38PM 21.7560 120.1700 74° East 496 571 37,000  Level FlightAware
09:39PM 21.7830 120.2750 75° East 497 572 37,000  Level FlightAware
09:39PM 21.8080 120.3700 74° East 497 572 37,000  Level FlightAware
09:40PM 21.8330 120.4680 75° East 498 573 37,000  Level FlightAware
09:41PM 21.8560 120.5570 74° East 497 572 37,000  Level FlightAware
09:41PM 21.8810 120.6590 75° East 495 570 37,000  Level FlightAware
09:42PM 21.9020 120.7400 74° East 493 567 37,000  Level FlightAware
09:43PM 21.9340 120.8440 72° East 491 565 37,000  Level FlightAware
09:43PM 21.9770 120.9200 59° Northeast 494 568 37,000  Level FlightAware
09:44PM 22.0340 121.0060 54° Northeast 490 564 37,000  Level FlightAware
09:45PM 22.0850 121.0830 54° Northeast 488 562 37,000  Level FlightAware
09:45PM 22.1440 121.1700 54° Northeast 484 557 37,000  Level FlightAware
09:46PM 22.1970 121.2520 55° Northeast 482 555 37,000  Level FlightAware
09:47PM 22.2580 121.3260 48° Northeast 486 559 37,000  Level FlightAware
09:48PM 22.3270 121.3940 42° Northeast 486 559 37,000  Level FlightAware
09:48PM 22.3850 121.4490 41° Northeast 487 560 37,000  Level FlightAware
09:49PM 22.4530 121.5150 42° Northeast 489 563 37,000  Level FlightAware
09:50PM 22.5380 121.5950 41° Northeast 490 564 37,000  Level FlightAware
09:50PM 22.5880 121.6400 40° Northeast 490 564 37,000  Level FlightAware
09:51PM 22.6670 121.7140 41° Northeast 491 565 37,000  Level FlightAware
09:51PM 22.7360 121.7780 41° Northeast 491 565 37,000  Level FlightAware
09:52PM 22.8000 121.8370 40° Northeast 490 564 37,000  Level FlightAware
09:53PM 22.8640 121.9040 44° Northeast 489 563 37,000  Level FlightAware
09:53PM 22.9270 121.9800 48° Northeast 487 560 37,000  Level FlightAware
09:54PM 22.9930 122.0700 51° Northeast 486 559 37,000  Level FlightAware
09:55PM 23.0530 122.1610 54° Northeast 486 559 37,000  Level FlightAware
09:56PM 23.1060 122.2350 52° Northeast 489 563 37,000  Level FlightAware
09:56PM 23.1420 122.3080 62° Northeast 485 558 37,000  Level FlightAware
09:57PM 23.1750 122.4240 73° East 486 559 37,000  Level FlightAware
09:58PM 23.1970 122.5040 73° East 486 559 37,000  Level FlightAware
09:58PM 23.2400 122.5610 51° Northeast 488 562 37,000  Level FlightAware
09:59PM 23.2760 122.6260 59° Northeast 488 562 37,000  Level FlightAware
09:59PM 23.3140 122.6920 58° Northeast 488 562 37,000  Level FlightAware
10:00PM 23.3720 122.7930 58° Northeast 488 562 37,000  Level FlightAware
10:01PM 23.4330 122.8990 58° Northeast 488 562 37,000  Level FlightAware
10:02PM 23.4700 122.9630 58° Northeast 488 562 37,000  Level FlightAware
10:03PM 23.5190 123.0500 58° Northeast 488 562 37,000  Level FlightAware
10:03PM 23.5560 123.1140 58° Northeast 488 562 37,000  Level FlightAware
10:04PM 23.6050 123.1990 58° Northeast 488 562 37,000  Level FlightAware
10:05PM 23.6410 123.2630 58° Northeast 488 562 37,000  Level FlightAware
10:05PM 23.6790 123.3290 58° Northeast 488 562 37,000  Level FlightAware
10:06PM 23.7160 123.3930 58° Northeast 488 562 37,000  Level FlightAware
10:07PM 23.7640 123.4780 58° Northeast 488 562 37,000  Level FlightAware
10:07PM 23.8010 123.5420 58° Northeast 488 562 37,000  Level FlightAware
10:08PM 23.8500 123.6280 58° Northeast 488 562 37,000  Level FlightAware
10:11PM 24.0496 123.8603 47° Northeast  Level Estimated
10:12PM 24.1333 123.9579 47° Northeast  Level Estimated
10:13PM 24.2169 124.0557 47° Northeast  Level Estimated
10:14PM 24.3004 124.1536 47° Northeast  Level Estimated
10:15PM 24.3839 124.2517 47° Northeast  Level Estimated
10:16PM 24.4673 124.3499 47° Northeast  Level Estimated
10:17PM 24.5506 124.4482 47° Northeast  Level Estimated
10:18PM 24.6339 124.5466 47° Northeast  Level Estimated
10:19PM 24.7171 124.6452 47° Northeast  Level Estimated
10:20PM 24.8002 124.7439 47° Northeast  Level Estimated
10:21PM 24.8833 124.8427 47° Northeast  Level Estimated
10:22PM 24.9663 124.9417 47° Northeast  Level Estimated
10:23PM 25.0492 125.0408 47° Northeast  Level Estimated
10:24PM 25.1321 125.1400 47° Northeast  Level Estimated
10:25PM 25.2150 125.2394 47° Northeast  Level Estimated
10:26PM 25.2977 125.3389 47° Northeast  Level Estimated
10:27PM 25.3804 125.4386 47° Northeast  Level Estimated
10:28PM 25.4630 125.5383 47° Northeast  Level Estimated
10:29PM 25.5455 125.6383 48° Northeast  Level Estimated
10:30PM 25.6280 125.7383 48° Northeast  Level Estimated
10:31PM 25.7104 125.8385 48° Northeast  Level Estimated
10:32PM 25.7928 125.9388 48° Northeast  Level Estimated
10:33PM 25.8750 126.0393 48° Northeast  Level Estimated
10:34PM 25.9573 126.1399 48° Northeast  Level Estimated
10:34PM 26.0270 126.8170 48° Northeast 474 545 37,000  Level FlightAware
10:35PM 26.0880 126.9000 51° Northeast 473 544 37,000  Level FlightAware
10:35PM 26.1410 126.9730 51° Northeast 473 544 37,000  Level FlightAware
10:36PM 26.2020 127.0570 51° Northeast 474 545 37,000  Level FlightAware
10:37PM 26.2550 127.1310 51° Northeast 474 545 37,000  Level FlightAware
10:37PM 26.3100 127.2050 50° Northeast 475 547 37,000  Level FlightAware
10:38PM 26.3660 127.2830 51° Northeast 474 545 37,000  Level FlightAware
10:39PM 26.4180 127.3540 51° Northeast 475 547 37,000  Level FlightAware
10:39PM 26.4760 127.4340 51° Northeast 476 548 37,000  Level FlightAware
10:40PM 26.5320 127.5130 52° Northeast 477 549 37,000  Level FlightAware
10:41PM 26.5850 127.5860 51° Northeast 477 549 37,000  Level FlightAware
10:41PM 26.6490 127.6760 51° Northeast 478 550 37,000  Level FlightAware
10:42PM 26.7050 127.7530 51° Northeast 477 549 37,000  Level FlightAware
10:43PM 26.7600 127.8300 51° Northeast 477 549 37,000  Level FlightAware
10:43PM 26.8190 127.9130 51° Northeast 475 547 37,000  Level FlightAware
10:44PM 26.8640 127.9750 51° Northeast 475 547 37,000  Level FlightAware
10:45PM 26.9240 128.0610 52° Northeast 475 547 37,000  Level FlightAware
10:45PM 26.9790 128.1370 51° Northeast 475 547 37,000  Level FlightAware
10:46PM 27.0220 128.1990 52° Northeast 475 547 37,000  Level FlightAware
10:47PM 27.0890 128.2930 51° Northeast 473 544 37,000  Level FlightAware
10:47PM 27.1500 128.3790 51° Northeast 473 544 37,000  Level FlightAware
10:48PM 27.2130 128.4690 52° Northeast 472 543 37,000  Level FlightAware
10:49PM 27.2710 128.5520 52° Northeast 472 543 37,000  Level FlightAware
10:50PM 27.3520 128.6660 51° Northeast 470 541 37,000  Level FlightAware
10:51PM 27.3930 128.7250 52° Northeast 470 541 37,000  Level FlightAware
10:52PM 27.4780 128.8460 52° Northeast 469 540 37,000  Level FlightAware
10:52PM 27.5370 128.9310 52° Northeast 469 540 37,000  Level FlightAware
10:53PM 27.5780 128.9900 52° Northeast 469 540 37,000  Level FlightAware
10:54PM 27.6320 129.0690 52° Northeast 469 540 37,000  Level FlightAware
10:54PM 27.6730 129.1280 52° Northeast 469 540 37,000  Level FlightAware
10:55PM 27.7570 129.2460 51° Northeast 37,000  Level FlightAware
10:58PM 27.9682 129.5023 47° Northeast  Level Estimated
10:59PM 28.0514 129.6037 47° Northeast  Level Estimated
11:00PM 28.1345 129.7053 47° Northeast  Level Estimated
11:01PM 28.2176 129.8071 47° Northeast  Level Estimated
11:02PM 28.3006 129.9090 47° Northeast  Level Estimated
11:03PM 28.3835 130.0110 47° Northeast  Level Estimated
11:04PM 28.4664 130.1133 47° Northeast  Level Estimated
11:05PM 28.5492 130.2157 47° Northeast  Level Estimated
11:06PM 28.6318 130.3182 47° Northeast  Level Estimated
11:07PM 28.7145 130.4209 47° Northeast  Level Estimated
11:08PM 28.7970 130.5238 48° Northeast  Level Estimated
11:09PM 28.8795 130.6268 48° Northeast  Level Estimated
11:10PM 28.9618 130.7300 48° Northeast  Level Estimated
11:11PM 29.0441 130.8334 48° Northeast  Level Estimated
11:12PM 29.1264 130.9369 48° Northeast  Level Estimated
11:13PM 29.2085 131.0406 48° Northeast  Level Estimated
11:14PM 29.2906 131.1445 48° Northeast  Level Estimated
11:15PM 29.3725 131.2485 48° Northeast  Level Estimated
11:16PM 29.4544 131.3527 48° Northeast  Level Estimated
11:17PM 29.5363 131.4571 48° Northeast  Level Estimated
11:18PM 29.6180 131.5616 48° Northeast  Level Estimated
11:19PM 29.6997 131.6663 48° Northeast  Level Estimated
11:20PM 29.7817 131.7718 48° Northeast  Level Estimated
11:21PM 29.8637 131.8775 48° Northeast  Level Estimated
11:22PM 29.9456 131.9833 48° Northeast  Level Estimated
11:23PM 30.0274 132.0893 48° Northeast  Level Estimated
11:24PM 30.1091 132.1955 48° Northeast  Level Estimated
11:25PM 30.1907 132.3019 48° Northeast  Level Estimated
11:26PM 30.2723 132.4084 48° Northeast  Level Estimated
11:27PM 30.3537 132.5151 48° Northeast  Level Estimated
11:28PM 30.4351 132.6220 49° Northeast  Level Estimated
11:29PM 30.5164 132.7291 49° Northeast  Level Estimated
11:30PM 30.5976 132.8363 49° Northeast  Level Estimated
11:31PM 30.6787 132.9438 49° Northeast  Level Estimated
11:32PM 30.7597 133.0514 49° Northeast  Level Estimated
11:33PM 30.8407 133.1592 49° Northeast  Level Estimated
11:34PM 30.9215 133.2672 49° Northeast  Level Estimated
11:35PM 31.0023 133.3753 49° Northeast  Level Estimated
11:36PM 31.0829 133.4836 49° Northeast  Level Estimated
11:37PM 31.1635 133.5922 49° Northeast  Level Estimated
11:38PM 31.2440 133.7009 49° Northeast  Level Estimated
11:39PM 31.3244 133.8098 49° Northeast  Level Estimated
11:40PM 31.4046 133.9189 49° Northeast  Level Estimated
11:41PM 31.4848 134.0281 49° Northeast  Level Estimated
11:42PM 31.5650 134.1376 49° Northeast  Level Estimated
11:42PM 31.6130 134.9180 49° Northeast 493 567 37,000  Level FlightAware
11:42PM 31.6620 134.9920 52° Northeast 494 568 37,000  Level FlightAware
11:43PM 31.7250 135.0870 52° Northeast 494 568 37,000  Level FlightAware
11:44PM 31.7880 135.1840 53° Northeast 493 567 37,000  Level FlightAware
11:44PM 31.8500 135.2770 52° Northeast 492 566 37,000  Level FlightAware
11:45PM 31.9110 135.3710 53° Northeast 492 566 37,000  Level FlightAware
11:46PM 31.9610 135.4450 51° Northeast 492 566 37,000  Level FlightAware
11:46PM 32.0140 135.5280 53° Northeast 491 565 37,000  Level FlightAware
11:47PM 32.0790 135.6250 52° Northeast 492 566 37,000  Level FlightAware
11:48PM 32.1270 135.7000 53° Northeast 491 565 37,000  Level FlightAware
11:48PM 32.1820 135.7850 53° Northeast 492 566 37,000  Level FlightAware
11:49PM 32.2450 135.8810 52° Northeast 492 566 37,000  Level FlightAware
11:50PM 32.3150 135.9900 53° Northeast 487 560 37,000  Level FlightAware
11:51PM 32.3690 136.0730 52° Northeast 487 560 37,000  Level FlightAware
11:51PM 32.4340 136.1730 52° Northeast 486 559 37,000  Level FlightAware
11:52PM 32.4990 136.2770 53° Northeast 492 566 37,000  Level FlightAware
11:53PM 32.5420 136.3450 53° Northeast 492 566 37,000  Level FlightAware
11:53PM 32.5860 136.4520 64° Northeast 492 566 37,000  Level FlightAware
11:55PM 32.6740 136.6200 58° Northeast 492 566 37,000  Level FlightAware
11:55PM 32.7170 136.7000 57° Northeast 492 566 37,000  Level FlightAware
11:56PM 32.7710 136.8030 58° Northeast 492 566 37,000  Level FlightAware
11:57PM 32.8210 136.8970 58° Northeast 494 568 37,000  Level FlightAware
11:57PM 32.8740 136.9990 58° Northeast 495 570 37,000  Level FlightAware
11:58PM 32.9320 137.1100 58° Northeast 495 570 37,000  Level FlightAware
11:59PM 32.9760 137.1930 58° Northeast 494 568 37,000  Level FlightAware
11:59PM 33.0290 137.2950 58° Northeast 496 571 37,000  Level FlightAware
12:00AM 33.0710 137.3790 59° Northeast 496 571 37,000  Level FlightAware
12:01AM 33.1200 137.4720 58° Northeast 497 572 37,000  Level FlightAware
12:01AM 33.1720 137.5730 58° Northeast 498 573 37,000  Level FlightAware
12:02AM 33.2040 137.6340 58° Northeast 498 573 37,000  Level FlightAware
12:03AM 33.2570 137.7390 59° Northeast 500 575 37,000  Level FlightAware
12:03AM 33.3200 137.8600 58° Northeast 501 577 37,000  Level FlightAware
12:04AM 33.3680 137.9550 59° Northeast 502 578 37,000  Level FlightAware
12:05AM 33.4160 138.0500 59° Northeast 502 578 37,000  Level FlightAware
12:05AM 33.4630 138.1420 58° Northeast 502 578 37,000  Level FlightAware
12:06AM 33.5110 138.2380 59° Northeast 504 580 37,000  Level FlightAware
12:07AM 33.5610 138.3360 59° Northeast 504 580 37,000  Level FlightAware
12:07AM 33.6100 138.4310 58° Northeast 505 581 37,000  Level FlightAware
12:08AM 33.6640 138.5390 59° Northeast 505 581 37,000  Level FlightAware
12:09AM 33.7060 138.6230 59° Northeast 506 582 37,000  Level FlightAware
12:10AM 33.7550 138.7220 59° Northeast 506 582 37,000  Level FlightAware
12:10AM 33.8040 138.8190 59° Northeast 506 582 37,000  Level FlightAware
12:11AM 33.8470 138.9060 59° Northeast 507 583 37,000  Level FlightAware
12:11AM 33.8950 139.0030 59° Northeast 507 583 37,000  Level FlightAware
12:12AM 33.9510 139.1170 59° Northeast 508 585 37,000  Level FlightAware
12:13AM 33.9990 139.2170 60° Northeast 507 583 37,000  Level FlightAware
12:14AM 34.0480 139.3140 59° Northeast 507 583 37,000  Level FlightAware
12:14AM 34.1020 139.4260 60° Northeast 507 583 37,000  Level FlightAware
12:15AM 34.1260 139.4750 59° Northeast 507 583 37,000  Level FlightAware
12:16AM 34.2090 139.6430 59° Northeast 507 583 37,000 -300 Level FlightAware
12:16AM 34.2570 139.7430 60° Northeast 505 581 36,500 -1,080 Descending FlightAware
12:17AM 34.3050 139.8410 59° Northeast 506 582 35,600 -1,500 Descending FlightAware
12:18AM 34.3500 139.9350 60° Northeast 493 567 34,500 -1,980 Descending FlightAware
12:19AM 34.4040 140.0440 59° Northeast 490 564 32,800 -2,220 Descending FlightAware
12:19AM 34.4540 140.1380 57° Northeast 486 559 31,300 -2,280 Descending FlightAware
12:20AM 34.5070 140.2390 57° Northeast 481 554 29,600 -2,400 Descending FlightAware
12:21AM 34.5490 140.3210 58° Northeast 469 540 28,100 -2,520 Descending FlightAware
12:21AM 34.6000 140.4210 58° Northeast 463 533 26,300 -2,400 Descending FlightAware
12:22AM 34.6380 140.4930 57° Northeast 451 519 24,900 -2,280 Descending FlightAware
12:23AM 34.6640 140.6060 74° East 439 505 23,300 -1,380 Descending FlightAware
12:23AM 34.6720 140.7030 84° East 418 481 23,000 -780 Descending FlightAware
12:24AM 34.6820 140.8050 83° East 409 471 22,200 -1,500 Descending FlightAware
12:25AM 34.6960 140.8940 79° East 399 459 20,900 -1,860 Descending FlightAware
12:25AM 34.7400 140.9640 53° Northeast 390 449 19,700 -1,620 Descending FlightAware
12:26AM 34.7650 140.9830 32° Northeast 387 445 19,400 -1,200 Descending FlightAware
12:26AM 34.8280 141.0010 13° North 375 432 18,700 -1,320 Descending FlightAware
12:27AM 34.8760 140.9970 356° North 364 419 18,000 -1,680 Descending FlightAware
12:28AM 34.9430 140.9630 337° Northwest 346 398 16,700 -1,800 Descending FlightAware
12:28AM 34.9890 140.9320 331° Northwest 336 387 15,700 -1,800 Descending FlightAware
12:29AM 35.0470 140.8900 329° Northwest 326 375 14,400 -1,800 Descending FlightAware
12:29AM 35.0970 140.8540 330° Northwest 319 367 13,200 -1,860 Descending FlightAware
12:30AM 35.1450 140.8190 329° Northwest 312 359 12,100 -1,680 Descending FlightAware
12:31AM 35.1940 140.7850 330° Northwest 313 360 11,100 -720 Descending FlightAware
12:31AM 35.2500 140.7480 332° Northwest 310 357 11,100  Level FlightAware
12:32AM 35.2680 140.7440 350° North 314 361 11,100  Level FlightAware
12:32AM 35.3030 140.7460 North 323 372 11,100  Level FlightAware
12:33AM 35.3700 140.7550 North 321 369 11,100 -300 Level FlightAware
12:34AM 35.4300 140.7630 North 311 358 10,700 -780 Descending FlightAware
12:34AM 35.4940 140.7710 North 289 333 10,000 -780 Descending FlightAware
12:34AM 35.5090 140.7720 North 278 320 10,000 -540 Level FlightAware
12:35AM 35.5540 140.7780 North 257 296 9,600 -960 Descending FlightAware
12:36AM 35.5890 140.7820 North 262 302 9,000 -1,440 Descending FlightAware
12:36AM 35.6200 140.7860 North 258 297 8,300 -1,020 Descending FlightAware
12:36AM 35.6580 140.7910 North 263 303 8,100 -240 Descending FlightAware
12:37AM 35.6890 140.7950 North 261 300 8,100 -600 Level FlightAware
12:38AM 35.7400 140.7830 349° North 253 291 7,400 -900 Descending FlightAware
12:38AM 35.7660 140.7610 326° Northwest 238 274 7,100 -360 Descending FlightAware
12:38AM 35.7900 140.7410 326° Northwest 246 283 7,100  Level FlightAware
12:39AM 35.8060 140.7230 318° Northwest 246 283 7,100  Level FlightAware
12:39AM 35.8170 140.7040 306° West 244 281 7,100  Level FlightAware
12:39AM 35.8330 140.6760 305° West 243 280 7,100 -540 Level FlightAware
12:40AM 35.8520 140.6400 303° West 240 276 6,600 -1,020 Descending FlightAware
12:40AM 35.8710 140.6080 306° West 241 277 6,100 -600 Descending FlightAware
12:41AM 35.8850 140.5800 302° West 239 275 6,100  Level FlightAware
12:41AM 35.9050 140.5450 305° West 237 273 6,100  Level FlightAware
12:42AM 35.9220 140.5140 304° West 219 252 6,100  Level FlightAware
12:42AM 35.9290 140.5010 304° West 214 246 6,100 -720 Level FlightAware
12:43AM 35.9400 140.4690 293° West 208 239 5,600 -1,320 Descending FlightAware
12:43AM 35.9510 140.4380 294° West 211 243 4,900 -1,500 Descending FlightAware
12:43AM 35.9560 140.4150 285° West 213 245 4,400 -1,140 Descending FlightAware
12:44AM 35.9520 140.3810 262° West 204 235 4,000 -1,080 Descending FlightAware
12:44AM 35.9480 140.3490 261° West 199 229 3,400 -1,200 Descending FlightAware
12:45AM 35.9440 140.3170 261° West 207 238 2,900 -720 Descending FlightAware
12:45AM 35.9380 140.3010 245° Southwest 207 238 2,900  Level FlightAware
12:46AM 35.9160 140.2800 218° Southwest 207 238 2,900  Level FlightAware
12:46AM 35.9060 140.2780 189° South 206 237 2,900 -480 Level FlightAware
12:46AM 35.8860 140.2870 160° South 192 221 2,600 -840 Descending FlightAware
12:47AM 35.8670 140.3010 149° Southeast 172 198 2,200 -1,020 Descending FlightAware
12:47AM 35.8530 140.3110 150° Southeast 166 191 1,900 -960 Descending FlightAware
12:47AM 35.8340 140.3250 149° Southeast 159 183 1,500 -900 Descending FlightAware
12:48AM 35.8160 140.3370 152° Southeast 156 180 1,100 -780 Descending FlightAware
12:48AM 35.7990 140.3500 148° Southeast 155 178 800 -720 Descending FlightAware
12:49AM 35.7840 140.3610 149° Southeast 156 180 500 -780 Descending FlightAware